sensor_id;sensor_type;location;lat;lon;timestamp;pressure;altitude;pressure_sealevel;temperature;humidity
46211;BME280;52144;48.040;-1.594;2023-05-02T00:01:48;101826.16;;;14.17;89.82
46211;BME280;52144;48.040;-1.594;2023-05-02T00:04:16;101818.25;;;14.14;91.29
46211;BME280;52144;48.040;-1.594;2023-05-02T00:06:44;101815.34;;;13.98;94.39
46211;BME280;52144;48.040;-1.594;2023-05-02T00:09:12;101814.91;;;13.88;96.69
46211;BME280;52144;48.040;-1.594;2023-05-02T00:11:41;101813.66;;;13.75;97.94
46211;BME280;52144;48.040;-1.594;2023-05-02T00:14:09;101815.84;;;13.65;99.15
46211;BME280;52144;48.040;-1.594;2023-05-02T00:16:36;101809.09;;;13.77;97.92
46211;BME280;52144;48.040;-1.594;2023-05-02T00:19:05;101804.69;;;13.32;100.00
46211;BME280;52144;48.040;-1.594;2023-05-02T00:21:33;101800.28;;;13.31;100.00
46211;BME280;52144;48.040;-1.594;2023-05-02T00:24:01;101797.09;;;13.43;100.00
46211;BME280;52144;48.040;-1.594;2023-05-02T00:26:29;101785.22;;;13.27;100.00
46211;BME280;52144;48.040;-1.594;2023-05-02T00:28:57;101787.69;;;13.33;100.00
46211;BME280;52144;48.040;-1.594;2023-05-02T00:31:24;101793.84;;;13.35;99.89
46211;BME280;52144;48.040;-1.594;2023-05-02T00:33:52;101786.78;;;13.34;99.97
46211;BME280;52144;48.040;-1.594;2023-05-02T00:36:21;101793.09;;;13.53;98.28
46211;BME280;52144;48.040;-1.594;2023-05-02T00:38:49;101793.25;;;13.50;97.59
46211;BME280;52144;48.040;-1.594;2023-05-02T00:41:17;101802.03;;;13.54;98.44
46211;BME280;52144;48.040;-1.594;2023-05-02T00:43:45;101804.81;;;13.73;99.37
46211;BME280;52144;48.040;-1.594;2023-05-02T00:46:13;101803.47;;;13.83;98.11
46211;BME280;52144;48.040;-1.594;2023-05-02T00:48:41;101801.34;;;13.91;98.33
46211;BME280;52144;48.040;-1.594;2023-05-02T00:51:10;101797.28;;;13.60;100.00
46211;BME280;52144;48.040;-1.594;2023-05-02T00:53:40;101801.28;;;13.72;100.00
46211;BME280;52144;48.040;-1.594;2023-05-02T00:56:08;101804.19;;;13.88;99.49
46211;BME280;52144;48.040;-1.594;2023-05-02T00:58:36;101795.19;;;13.89;100.00
46211;BME280;52144;48.040;-1.594;2023-05-02T01:01:11;101798.38;;;13.77;100.00
46211;BME280;52144;48.040;-1.594;2023-05-02T01:03:53;101791.41;;;13.73;100.00
46211;BME280;52144;48.040;-1.594;2023-05-02T01:06:30;101806.06;;;13.42;100.00
46211;BME280;52144;48.040;-1.594;2023-05-02T01:09:12;101803.09;;;13.92;100.00
46211;BME280;52144;48.040;-1.594;2023-05-02T01:11:47;101805.09;;;14.08;100.00
46211;BME280;52144;48.040;-1.594;2023-05-02T01:14:19;101814.09;;;14.07;100.00
46211;BME280;52144;48.040;-1.594;2023-05-02T01:16:48;101810.22;;;14.14;99.74
46211;BME280;52144;48.040;-1.594;2023-05-02T01:19:23;101817.59;;;14.09;100.00
46211;BME280;52144;48.040;-1.594;2023-05-02T01:21:52;101814.00;;;14.08;100.00
46211;BME280;52144;48.040;-1.594;2023-05-02T01:24:25;101813.69;;;14.16;100.00
46211;BME280;52144;48.040;-1.594;2023-05-02T01:27:02;101808.06;;;14.22;100.00
46211;BME280;52144;48.040;-1.594;2023-05-02T01:29:36;101810.72;;;14.01;100.00
46211;BME280;52144;48.040;-1.594;2023-05-02T01:32:06;101797.94;;;14.08;100.00
46211;BME280;52144;48.040;-1.594;2023-05-02T01:34:37;101797.94;;;14.08;100.00
46211;BME280;52144;48.040;-1.594;2023-05-02T01:37:08;101802.84;;;14.19;100.00
46211;BME280;52144;48.040;-1.594;2023-05-02T01:39:39;101796.47;;;14.21;100.00
46211;BME280;52144;48.040;-1.594;2023-05-02T01:42:08;101796.00;;;14.32;100.00
46211;BME280;52144;48.040;-1.594;2023-05-02T01:44:40;101794.91;;;14.36;100.00
46211;BME280;52144;48.040;-1.594;2023-05-02T01:47:10;101798.06;;;14.25;99.53
46211;BME280;52144;48.040;-1.594;2023-05-02T01:49:39;101800.28;;;13.95;100.00
46211;BME280;52144;48.040;-1.594;2023-05-02T01:52:11;101802.69;;;14.22;100.00
46211;BME280;52144;48.040;-1.594;2023-05-02T01:54:40;101795.06;;;13.92;100.00
46211;BME280;52144;48.040;-1.594;2023-05-02T01:57:10;101802.03;;;14.37;99.37
46211;BME280;52144;48.040;-1.594;2023-05-02T01:59:41;101798.94;;;14.26;100.00
46211;BME280;52144;48.040;-1.594;2023-05-02T02:02:12;101805.25;;;14.45;100.00
46211;BME280;52144;48.040;-1.594;2023-05-02T02:04:41;101803.56;;;14.22;100.00
46211;BME280;52144;48.040;-1.594;2023-05-02T02:07:12;101805.38;;;14.22;100.00
46211;BME280;52144;48.040;-1.594;2023-05-02T02:09:40;101812.41;;;14.45;98.56
46211;BME280;52144;48.040;-1.594;2023-05-02T02:12:11;101818.97;;;14.38;99.86
46211;BME280;52144;48.040;-1.594;2023-05-02T02:14:47;101815.63;;;14.53;96.92
46211;BME280;52144;48.040;-1.594;2023-05-02T02:17:22;101817.44;;;14.32;97.33
46211;BME280;52144;48.040;-1.594;2023-05-02T02:19:52;101818.72;;;14.03;99.94
46211;BME280;52144;48.040;-1.594;2023-05-02T02:22:23;101816.91;;;14.24;100.00
46211;BME280;52144;48.040;-1.594;2023-05-02T02:24:53;101817.78;;;14.24;99.27
46211;BME280;52144;48.040;-1.594;2023-05-02T02:27:21;101819.59;;;14.24;100.00
46211;BME280;52144;48.040;-1.594;2023-05-02T02:29:50;101834.28;;;14.15;100.00
46211;BME280;52144;48.040;-1.594;2023-05-02T02:32:18;101831.44;;;13.98;100.00
46211;BME280;52144;48.040;-1.594;2023-05-02T02:34:46;101833.13;;;14.00;100.00
46211;BME280;52144;48.040;-1.594;2023-05-02T02:37:17;101839.47;;;14.18;99.74
46211;BME280;52144;48.040;-1.594;2023-05-02T02:39:53;101840.28;;;13.78;100.00
46211;BME280;52144;48.040;-1.594;2023-05-02T02:42:31;101840.47;;;13.95;100.00
46211;BME280;52144;48.040;-1.594;2023-05-02T02:45:09;101836.75;;;14.20;100.00
46211;BME280;52144;48.040;-1.594;2023-05-02T02:47:48;101836.00;;;14.16;100.00
46211;BME280;52144;48.040;-1.594;2023-05-02T02:50:21;101834.59;;;14.28;99.62
46211;BME280;52144;48.040;-1.594;2023-05-02T02:52:54;101835.56;;;14.27;99.79
46211;BME280;52144;48.040;-1.594;2023-05-02T02:55:28;101839.38;;;14.21;99.31
46211;BME280;52144;48.040;-1.594;2023-05-02T02:57:59;101837.13;;;13.90;100.00
46211;BME280;52144;48.040;-1.594;2023-05-02T03:00:31;101839.47;;;13.98;100.00
46211;BME280;52144;48.040;-1.594;2023-05-02T03:02:59;101838.88;;;14.12;100.00
46211;BME280;52144;48.040;-1.594;2023-05-02T03:05:28;101852.97;;;14.17;99.32
46211;BME280;52144;48.040;-1.594;2023-05-02T03:07:57;101846.28;;;14.27;98.80
46211;BME280;52144;48.040;-1.594;2023-05-02T03:10:25;101839.31;;;14.43;98.30
46211;BME280;52144;48.040;-1.594;2023-05-02T03:12:53;101839.16;;;14.47;98.36
46211;BME280;52144;48.040;-1.594;2023-05-02T03:15:42;101838.50;;;14.41;98.92
46211;BME280;52144;48.040;-1.594;2023-05-02T03:18:18;101844.31;;;14.51;98.43
46211;BME280;52144;48.040;-1.594;2023-05-02T03:20:46;101834.22;;;14.58;98.18
46211;BME280;52144;48.040;-1.594;2023-05-02T03:23:14;101838.75;;;14.15;98.80
46211;BME280;52144;48.040;-1.594;2023-05-02T03:25:41;101838.03;;;14.32;97.89
46211;BME280;52144;48.040;-1.594;2023-05-02T03:28:09;101828.56;;;14.43;96.87
46211;BME280;52144;48.040;-1.594;2023-05-02T03:30:37;101837.69;;;14.39;97.69
46211;BME280;52144;48.040;-1.594;2023-05-02T03:33:07;101832.72;;;14.30;98.27
46211;BME280;52144;48.040;-1.594;2023-05-02T03:35:35;101834.22;;;14.37;98.85
46211;BME280;52144;48.040;-1.594;2023-05-02T03:38:03;101842.78;;;14.45;96.22
46211;BME280;52144;48.040;-1.594;2023-05-02T03:40:31;101842.00;;;14.64;95.52
46211;BME280;52144;48.040;-1.594;2023-05-02T03:42:58;101844.66;;;14.43;97.81
46211;BME280;52144;48.040;-1.594;2023-05-02T03:45:26;101845.59;;;14.22;98.62
46211;BME280;52144;48.040;-1.594;2023-05-02T03:47:54;101838.22;;;14.48;97.27
46211;BME280;52144;48.040;-1.594;2023-05-02T03:50:23;101847.94;;;14.50;96.66
46211;BME280;52144;48.040;-1.594;2023-05-02T03:52:51;101837.59;;;14.41;97.71
46211;BME280;52144;48.040;-1.594;2023-05-02T03:55:19;101835.72;;;14.22;97.05
46211;BME280;52144;48.040;-1.594;2023-05-02T03:57:47;101833.72;;;14.28;97.21
46211;BME280;52144;48.040;-1.594;2023-05-02T04:00:14;101833.47;;;14.34;96.98
46211;BME280;52144;48.040;-1.594;2023-05-02T04:02:42;101842.78;;;14.45;96.37
46211;BME280;52144;48.040;-1.594;2023-05-02T04:05:10;101838.41;;;14.43;97.80
46211;BME280;52144;48.040;-1.594;2023-05-02T04:07:39;101832.53;;;14.55;97.43
46211;BME280;52144;48.040;-1.594;2023-05-02T04:10:08;101827.84;;;14.60;96.17
46211;BME280;52144;48.040;-1.594;2023-05-02T04:12:41;101827.03;;;14.58;96.46
46211;BME280;52144;48.040;-1.594;2023-05-02T04:15:10;101821.44;;;14.42;96.81
46211;BME280;52144;48.040;-1.594;2023-05-02T04:17:37;101826.97;;;14.39;96.11
46211;BME280;52144;48.040;-1.594;2023-05-02T04:20:06;101823.06;;;14.47;97.07
46211;BME280;52144;48.040;-1.594;2023-05-02T04:22:34;101820.03;;;14.54;96.79
46211;BME280;52144;48.040;-1.594;2023-05-02T04:25:07;101820.66;;;14.61;96.89
46211;BME280;52144;48.040;-1.594;2023-05-02T04:27:34;101826.81;;;14.63;96.46
46211;BME280;52144;48.040;-1.594;2023-05-02T04:30:05;101821.19;;;14.49;96.73
46211;BME280;52144;48.040;-1.594;2023-05-02T04:32:33;101824.03;;;14.25;96.80
46211;BME280;52144;48.040;-1.594;2023-05-02T04:35:00;101838.09;;;14.30;96.94
46211;BME280;52144;48.040;-1.594;2023-05-02T04:37:28;101842.50;;;14.11;96.77
46211;BME280;52144;48.040;-1.594;2023-05-02T04:39:56;101842.25;;;14.17;97.23
46211;BME280;52144;48.040;-1.594;2023-05-02T04:42:25;101833.53;;;14.32;98.16
46211;BME280;52144;48.040;-1.594;2023-05-02T04:44:53;101837.41;;;14.04;96.98
46211;BME280;52144;48.040;-1.594;2023-05-02T04:47:21;101839.25;;;13.82;99.51
46211;BME280;52144;48.040;-1.594;2023-05-02T04:49:49;101842.41;;;13.92;99.70
46211;BME280;52144;48.040;-1.594;2023-05-02T04:52:16;101845.19;;;14.11;97.26
46211;BME280;52144;48.040;-1.594;2023-05-02T04:54:45;101838.94;;;14.10;96.90
46211;BME280;52144;48.040;-1.594;2023-05-02T04:57:13;101840.94;;;13.62;99.52
46211;BME280;52144;48.040;-1.594;2023-05-02T04:59:42;101844.63;;;13.82;98.61
46211;BME280;52144;48.040;-1.594;2023-05-02T05:02:10;101856.97;;;14.07;95.81
46211;BME280;52144;48.040;-1.594;2023-05-02T05:04:38;101857.91;;;14.26;96.22
46211;BME280;52144;48.040;-1.594;2023-05-02T05:07:06;101857.66;;;14.32;95.66
46211;BME280;52144;48.040;-1.594;2023-05-02T05:09:34;101855.66;;;14.37;95.64
46211;BME280;52144;48.040;-1.594;2023-05-02T05:12:02;101859.69;;;14.48;93.84
46211;BME280;52144;48.040;-1.594;2023-05-02T05:14:29;101861.56;;;14.25;95.66
46211;BME280;52144;48.040;-1.594;2023-05-02T05:16:59;101858.00;;;14.45;95.01
46211;BME280;52144;48.040;-1.594;2023-05-02T05:19:26;101858.25;;;14.18;95.79
46211;BME280;52144;48.040;-1.594;2023-05-02T05:21:55;101855.50;;;14.20;96.86
46211;BME280;52144;48.040;-1.594;2023-05-02T05:24:23;101853.78;;;14.39;93.32
46211;BME280;52144;48.040;-1.594;2023-05-02T05:26:51;101848.38;;;14.61;92.94
46211;BME280;52144;48.040;-1.594;2023-05-02T05:29:19;101860.75;;;14.43;92.73
46211;BME280;52144;48.040;-1.594;2023-05-02T05:31:46;101861.66;;;14.22;94.80
46211;BME280;52144;48.040;-1.594;2023-05-02T05:34:16;101860.22;;;14.15;97.81
46211;BME280;52144;48.040;-1.594;2023-05-02T05:36:44;101856.06;;;13.85;97.72
46211;BME280;52144;48.040;-1.594;2023-05-02T05:39:12;101861.00;;;13.96;99.46
46211;BME280;52144;48.040;-1.594;2023-05-02T05:41:39;101857.38;;;14.18;97.95
46211;BME280;52144;48.040;-1.594;2023-05-02T05:44:07;101865.16;;;14.24;95.48
46211;BME280;52144;48.040;-1.594;2023-05-02T05:46:35;101856.72;;;14.33;96.70
46211;BME280;52144;48.040;-1.594;2023-05-02T05:49:03;101866.50;;;14.55;96.23
46211;BME280;52144;48.040;-1.594;2023-05-02T05:51:34;101872.13;;;14.49;94.91
46211;BME280;52144;48.040;-1.594;2023-05-02T05:54:02;101876.63;;;14.48;94.85
46211;BME280;52144;48.040;-1.594;2023-05-02T05:56:30;101875.63;;;14.71;95.63
46211;BME280;52144;48.040;-1.594;2023-05-02T05:58:57;101880.56;;;14.61;95.81
46211;BME280;52144;48.040;-1.594;2023-05-02T06:01:25;101887.19;;;14.10;97.71
46211;BME280;52144;48.040;-1.594;2023-05-02T06:03:53;101888.75;;;14.16;97.57
46211;BME280;52144;48.040;-1.594;2023-05-02T06:06:21;101882.75;;;14.31;95.45
46211;BME280;52144;48.040;-1.594;2023-05-02T06:08:50;101896.41;;;14.25;97.29
46211;BME280;52144;48.040;-1.594;2023-05-02T06:11:18;101896.47;;;14.23;97.49
46211;BME280;52144;48.040;-1.594;2023-05-02T06:13:45;101897.84;;;14.12;95.52
46211;BME280;52144;48.040;-1.594;2023-05-02T06:16:13;101899.59;;;14.13;96.40
46211;BME280;52144;48.040;-1.594;2023-05-02T06:18:41;101895.06;;;14.57;96.11
46211;BME280;52144;48.040;-1.594;2023-05-02T06:21:09;101893.28;;;14.56;95.22
46211;BME280;52144;48.040;-1.594;2023-05-02T06:23:36;101891.53;;;14.55;95.77
46211;BME280;52144;48.040;-1.594;2023-05-02T06:26:06;101898.78;;;14.11;95.78
46211;BME280;52144;48.040;-1.594;2023-05-02T06:28:33;101906.50;;;14.18;98.52
46211;BME280;52144;48.040;-1.594;2023-05-02T06:31:02;101914.94;;;14.09;97.25
46211;BME280;52144;48.040;-1.594;2023-05-02T06:33:32;101915.69;;;14.13;96.63
46211;BME280;52144;48.040;-1.594;2023-05-02T06:36:00;101910.34;;;14.33;96.82
46211;BME280;52144;48.040;-1.594;2023-05-02T06:38:28;101922.13;;;14.72;95.84
46211;BME280;52144;48.040;-1.594;2023-05-02T06:40:56;101918.41;;;14.33;96.51
46211;BME280;52144;48.040;-1.594;2023-05-02T06:43:25;101925.66;;;14.52;94.55
46211;BME280;52144;48.040;-1.594;2023-05-02T06:45:54;101918.44;;;14.74;94.80
46211;BME280;52144;48.040;-1.594;2023-05-02T06:48:22;101924.97;;;14.88;93.29
46211;BME280;52144;48.040;-1.594;2023-05-02T06:50:50;101921.44;;;14.67;95.10
46211;BME280;52144;48.040;-1.594;2023-05-02T06:53:19;101920.31;;;14.72;93.39
46211;BME280;52144;48.040;-1.594;2023-05-02T06:55:47;101915.38;;;14.41;97.04
46211;BME280;52144;48.040;-1.594;2023-05-02T06:58:15;101923.31;;;14.85;96.11
46211;BME280;52144;48.040;-1.594;2023-05-02T07:00:44;101931.69;;;14.98;93.78
46211;BME280;52144;48.040;-1.594;2023-05-02T07:03:14;101928.47;;;15.10;94.35
46211;BME280;52144;48.040;-1.594;2023-05-02T07:05:42;101923.81;;;14.74;96.21
46211;BME280;52144;48.040;-1.594;2023-05-02T07:08:10;101926.59;;;14.92;93.49
46211;BME280;52144;48.040;-1.594;2023-05-02T07:10:38;101923.91;;;15.12;91.81
46211;BME280;52144;48.040;-1.594;2023-05-02T07:13:05;101921.91;;;15.16;90.65
46211;BME280;52144;48.040;-1.594;2023-05-02T07:15:33;101912.53;;;15.45;92.95
46211;BME280;52144;48.040;-1.594;2023-05-02T07:18:02;101921.78;;;15.38;92.45
46211;BME280;52144;48.040;-1.594;2023-05-02T07:20:30;101916.88;;;15.29;93.30
46211;BME280;52144;48.040;-1.594;2023-05-02T07:22:58;101917.81;;;15.28;92.17
46211;BME280;52144;48.040;-1.594;2023-05-02T07:25:26;101928.91;;;15.96;90.23
46211;BME280;52144;48.040;-1.594;2023-05-02T07:27:54;101932.28;;;15.82;88.85
46211;BME280;52144;48.040;-1.594;2023-05-02T07:30:22;101936.69;;;15.83;87.80
46211;BME280;52144;48.040;-1.594;2023-05-02T07:32:50;101927.59;;;15.67;89.21
46211;BME280;52144;48.040;-1.594;2023-05-02T07:35:19;101923.91;;;15.88;87.96
46211;BME280;52144;48.040;-1.594;2023-05-02T07:37:47;101920.06;;;16.11;86.35
46211;BME280;52144;48.040;-1.594;2023-05-02T07:40:15;101918.97;;;16.50;84.46
46211;BME280;52144;48.040;-1.594;2023-05-02T07:42:43;101916.88;;;16.57;84.52
46211;BME280;52144;48.040;-1.594;2023-05-02T07:45:12;101914.97;;;16.41;87.20
46211;BME280;52144;48.040;-1.594;2023-05-02T07:47:40;101913.84;;;16.63;85.70
46211;BME280;52144;48.040;-1.594;2023-05-02T07:50:08;101912.41;;;16.38;86.05
46211;BME280;52144;48.040;-1.594;2023-05-02T07:52:37;101909.34;;;16.29;87.46
46211;BME280;52144;48.040;-1.594;2023-05-02T07:55:06;101915.50;;;16.48;87.27
46211;BME280;52144;48.040;-1.594;2023-05-02T07:57:34;101929.69;;;16.52;88.36
46211;BME280;52144;48.040;-1.594;2023-05-02T08:00:02;101919.38;;;16.60;91.43
46211;BME280;52144;48.040;-1.594;2023-05-02T08:02:33;101923.84;;;16.61;88.33
46211;BME280;52144;48.040;-1.594;2023-05-02T08:05:02;101924.94;;;16.92;84.54
46211;BME280;52144;48.040;-1.594;2023-05-02T08:07:30;101930.78;;;17.00;82.37
46211;BME280;52144;48.040;-1.594;2023-05-02T08:10:00;101929.94;;;17.15;83.63
46211;BME280;52144;48.040;-1.594;2023-05-02T08:12:28;101927.91;;;17.03;85.61
46211;BME280;52144;48.040;-1.594;2023-05-02T08:14:56;101928.16;;;16.98;83.93
46211;BME280;52144;48.040;-1.594;2023-05-02T08:17:24;101923.88;;;17.28;81.85
46211;BME280;52144;48.040;-1.594;2023-05-02T08:19:54;101925.09;;;17.38;84.42
46211;BME280;52144;48.040;-1.594;2023-05-02T08:22:22;101926.66;;;17.42;81.38
46211;BME280;52144;48.040;-1.594;2023-05-02T08:24:50;101930.84;;;17.48;81.26
46211;BME280;52144;48.040;-1.594;2023-05-02T08:27:19;101919.75;;;17.70;79.76
46211;BME280;52144;48.040;-1.594;2023-05-02T08:29:47;101936.34;;;17.62;84.60
46211;BME280;52144;48.040;-1.594;2023-05-02T08:32:14;101934.44;;;17.15;83.98
46211;BME280;52144;48.040;-1.594;2023-05-02T08:34:42;101929.09;;;17.31;85.31
46211;BME280;52144;48.040;-1.594;2023-05-02T08:37:10;101926.56;;;17.28;83.84
46211;BME280;52144;48.040;-1.594;2023-05-02T08:39:38;101917.13;;;17.52;83.52
46211;BME280;52144;48.040;-1.594;2023-05-02T08:42:06;101917.00;;;17.87;83.31
46211;BME280;52144;48.040;-1.594;2023-05-02T08:44:36;101922.09;;;17.11;83.90
46211;BME280;52144;48.040;-1.594;2023-05-02T08:47:04;101914.31;;;17.22;82.70
46211;BME280;52144;48.040;-1.594;2023-05-02T08:49:33;101915.72;;;17.45;83.38
46211;BME280;52144;48.040;-1.594;2023-05-02T08:52:03;101910.16;;;17.64;83.14
46211;BME280;52144;48.040;-1.594;2023-05-02T08:54:32;101918.06;;;18.15;81.34
46211;BME280;52144;48.040;-1.594;2023-05-02T08:57:02;101914.63;;;18.27;79.63
46211;BME280;52144;48.040;-1.594;2023-05-02T08:59:30;101913.94;;;18.23;78.68
46211;BME280;52144;48.040;-1.594;2023-05-02T09:02:04;101905.97;;;18.22;79.57
46211;BME280;52144;48.040;-1.594;2023-05-02T09:04:35;101908.78;;;18.04;80.07
46211;BME280;52144;48.040;-1.594;2023-05-02T09:07:07;101892.94;;;17.98;80.61
46211;BME280;52144;48.040;-1.594;2023-05-02T09:09:36;101892.72;;;18.48;80.55
46211;BME280;52144;48.040;-1.594;2023-05-02T09:12:04;101896.22;;;18.78;76.67
46211;BME280;52144;48.040;-1.594;2023-05-02T09:14:32;101891.13;;;18.29;78.44
46211;BME280;52144;48.040;-1.594;2023-05-02T09:17:01;101891.69;;;18.20;77.98
46211;BME280;52144;48.040;-1.594;2023-05-02T09:19:29;101893.56;;;18.03;80.66
46211;BME280;52144;48.040;-1.594;2023-05-02T09:22:01;101889.97;;;18.78;78.88
46211;BME280;52144;48.040;-1.594;2023-05-02T09:24:28;101892.91;;;19.32;74.15
46211;BME280;52144;48.040;-1.594;2023-05-02T09:26:58;101888.50;;;19.58;70.23
46211;BME280;52144;48.040;-1.594;2023-05-02T09:29:27;101897.38;;;19.60;69.27
46211;BME280;52144;48.040;-1.594;2023-05-02T09:31:56;101896.84;;;19.41;73.70
46211;BME280;52144;48.040;-1.594;2023-05-02T09:34:25;101899.78;;;19.65;71.99
46211;BME280;52144;48.040;-1.594;2023-05-02T09:36:53;101903.75;;;19.74;72.16
46211;BME280;52144;48.040;-1.594;2023-05-02T09:39:21;101902.97;;;19.57;71.94
46211;BME280;52144;48.040;-1.594;2023-05-02T09:41:51;101904.69;;;20.27;70.37
46211;BME280;52144;48.040;-1.594;2023-05-02T09:44:21;101910.72;;;20.58;67.31
46211;BME280;52144;48.040;-1.594;2023-05-02T09:46:51;101913.31;;;20.59;67.05
46211;BME280;52144;48.040;-1.594;2023-05-02T09:49:39;101912.88;;;20.53;67.98
46211;BME280;52144;48.040;-1.594;2023-05-02T09:52:10;101912.50;;;20.04;67.47
46211;BME280;52144;48.040;-1.594;2023-05-02T09:54:38;101911.59;;;20.18;66.74
46211;BME280;52144;48.040;-1.594;2023-05-02T09:57:06;101908.16;;;20.29;65.76
46211;BME280;52144;48.040;-1.594;2023-05-02T09:59:36;101910.66;;;20.72;67.50
46211;BME280;52144;48.040;-1.594;2023-05-02T10:02:05;101910.97;;;21.06;63.89
46211;BME280;52144;48.040;-1.594;2023-05-02T10:04:35;101905.84;;;21.14;62.80
46211;BME280;52144;48.040;-1.594;2023-05-02T10:07:08;101907.34;;;21.44;62.97
46211;BME280;52144;48.040;-1.594;2023-05-02T10:09:41;101920.50;;;20.60;66.69
46211;BME280;52144;48.040;-1.594;2023-05-02T10:12:13;101918.28;;;20.13;65.59
46211;BME280;52144;48.040;-1.594;2023-05-02T10:14:48;101919.63;;;20.73;62.78
46211;BME280;52144;48.040;-1.594;2023-05-02T10:17:21;101913.09;;;21.27;63.46
46211;BME280;52144;48.040;-1.594;2023-05-02T10:19:56;101927.66;;;20.74;60.67
46211;BME280;52144;48.040;-1.594;2023-05-02T10:22:25;101916.50;;;21.17;60.80
46211;BME280;52144;48.040;-1.594;2023-05-02T10:24:53;101923.69;;;21.68;62.79
46211;BME280;52144;48.040;-1.594;2023-05-02T10:27:24;101919.50;;;21.88;59.66
46211;BME280;52144;48.040;-1.594;2023-05-02T10:29:52;101911.56;;;22.09;58.10
46211;BME280;52144;48.040;-1.594;2023-05-02T10:32:21;101918.38;;;22.15;56.82
46211;BME280;52144;48.040;-1.594;2023-05-02T10:34:51;101920.84;;;22.18;57.24
46211;BME280;52144;48.040;-1.594;2023-05-02T10:37:21;101917.16;;;21.95;59.49
46211;BME280;52144;48.040;-1.594;2023-05-02T10:39:50;101927.00;;;21.09;59.25
46211;BME280;52144;48.040;-1.594;2023-05-02T10:42:19;101919.56;;;20.47;60.75
46211;BME280;52144;48.040;-1.594;2023-05-02T10:44:47;101918.63;;;20.21;63.34
46211;BME280;52144;48.040;-1.594;2023-05-02T10:47:19;101912.25;;;21.26;61.73
46211;BME280;52144;48.040;-1.594;2023-05-02T10:49:51;101916.63;;;21.90;56.34
46211;BME280;52144;48.040;-1.594;2023-05-02T10:52:27;101915.88;;;22.12;57.51
46211;BME280;52144;48.040;-1.594;2023-05-02T10:55:17;101912.56;;;21.84;54.72
46211;BME280;52144;48.040;-1.594;2023-05-02T10:58:19;101909.09;;;21.82;55.82
46211;BME280;52144;48.040;-1.594;2023-05-02T11:00:50;101912.69;;;22.42;56.45
46211;BME280;52144;48.040;-1.594;2023-05-02T11:03:52;101915.59;;;22.03;56.65
46211;BME280;52144;48.040;-1.594;2023-05-02T11:06:20;101912.56;;;21.21;57.64
46211;BME280;52144;48.040;-1.594;2023-05-02T11:08:48;101910.69;;;21.35;59.92
46211;BME280;52144;48.040;-1.594;2023-05-02T11:11:40;101919.81;;;21.34;59.32
46211;BME280;52144;48.040;-1.594;2023-05-02T11:14:09;101903.25;;;21.75;59.12
46211;BME280;52144;48.040;-1.594;2023-05-02T11:17:07;101902.03;;;22.03;57.74
46211;BME280;52144;48.040;-1.594;2023-05-02T11:22:51;101908.22;;;22.88;55.48
46211;BME280;52144;48.040;-1.594;2023-05-02T11:25:34;101907.78;;;23.28;53.09
46211;BME280;52144;48.040;-1.594;2023-05-02T11:28:05;101903.53;;;22.78;52.77
46211;BME280;52144;48.040;-1.594;2023-05-02T11:30:41;101901.94;;;22.40;54.09
46211;BME280;52144;48.040;-1.594;2023-05-02T11:33:12;101890.28;;;21.68;56.55
46211;BME280;52144;48.040;-1.594;2023-05-02T11:35:43;101895.69;;;21.92;57.80
46211;BME280;52144;48.040;-1.594;2023-05-02T11:38:17;101892.38;;;21.99;54.25
46211;BME280;52144;48.040;-1.594;2023-05-02T11:40:51;101900.22;;;21.80;55.21
46211;BME280;52144;48.040;-1.594;2023-05-02T11:43:22;101890.53;;;22.59;54.62
46211;BME280;52144;48.040;-1.594;2023-05-02T11:45:51;101893.03;;;22.74;53.38
46211;BME280;52144;48.040;-1.594;2023-05-02T11:48:20;101890.06;;;22.06;53.27
46211;BME280;52144;48.040;-1.594;2023-05-02T11:50:50;101896.13;;;22.80;54.01
46211;BME280;52144;48.040;-1.594;2023-05-02T11:53:21;101903.50;;;22.67;51.41
46211;BME280;52144;48.040;-1.594;2023-05-02T11:55:50;101900.19;;;22.28;55.47
46211;BME280;52144;48.040;-1.594;2023-05-02T11:58:21;101905.56;;;22.17;52.48
46211;BME280;52144;48.040;-1.594;2023-05-02T12:00:50;101907.13;;;22.90;53.14
46211;BME280;52144;48.040;-1.594;2023-05-02T12:03:31;101899.91;;;23.02;53.35
46211;BME280;52144;48.040;-1.594;2023-05-02T12:06:08;101896.53;;;23.21;52.34
46211;BME280;52144;48.040;-1.594;2023-05-02T12:08:37;101895.97;;;22.00;54.24
46211;BME280;52144;48.040;-1.594;2023-05-02T12:11:05;101888.34;;;22.05;56.85
46211;BME280;52144;48.040;-1.594;2023-05-02T12:13:43;101888.03;;;23.03;53.84
46211;BME280;52144;48.040;-1.594;2023-05-02T12:16:12;101887.44;;;23.77;52.69
46211;BME280;52144;48.040;-1.594;2023-05-02T12:18:40;101883.56;;;23.13;53.64
46211;BME280;52144;48.040;-1.594;2023-05-02T12:21:08;101892.03;;;22.75;53.07
46211;BME280;52144;48.040;-1.594;2023-05-02T12:23:36;101891.50;;;22.58;53.11
46211;BME280;52144;48.040;-1.594;2023-05-02T12:26:18;101900.34;;;22.38;54.38
46211;BME280;52144;48.040;-1.594;2023-05-02T12:28:48;101896.66;;;23.19;52.44
46211;BME280;52144;48.040;-1.594;2023-05-02T12:31:17;101898.59;;;23.62;51.29
46211;BME280;52144;48.040;-1.594;2023-05-02T12:33:46;101898.88;;;23.37;49.72
46211;BME280;52144;48.040;-1.594;2023-05-02T12:36:15;101902.88;;;24.20;49.39
46211;BME280;52144;48.040;-1.594;2023-05-02T12:38:47;101889.75;;;24.88;48.27
46211;BME280;52144;48.040;-1.594;2023-05-02T12:41:19;101893.69;;;24.00;49.63
46211;BME280;52144;48.040;-1.594;2023-05-02T12:43:57;101885.31;;;23.14;51.14
46211;BME280;52144;48.040;-1.594;2023-05-02T12:46:26;101879.97;;;23.24;51.87
46211;BME280;52144;48.040;-1.594;2023-05-02T12:49:01;101883.53;;;23.47;52.47
46211;BME280;52144;48.040;-1.594;2023-05-02T12:51:31;101881.88;;;23.90;49.84
46211;BME280;52144;48.040;-1.594;2023-05-02T12:54:00;101870.00;;;24.96;47.41
46211;BME280;52144;48.040;-1.594;2023-05-02T12:56:27;101873.13;;;24.28;48.42